createdAt,value
2022-10-05T10:55:35.059Z,68.3
2022-10-05T11:01:13.298Z,68.8
2022-10-05T11:06:54.889Z,69.2
2022-10-05T11:12:34.633Z,69.7
2022-10-05T11:18:15.118Z,68.3
2022-10-05T11:24:16.412Z,64.6
2022-10-05T11:29:55.494Z,62.9
2022-10-05T11:35:37.860Z,64.6
2022-10-05T11:41:15.384Z,65.8
2022-10-05T11:46:58.975Z,65.3
2022-10-05T11:52:37.527Z,65.1
2022-10-05T11:58:39.421Z,66.3
2022-10-05T12:04:21.662Z,67.3
2022-10-05T12:09:59.514Z,68.1
2022-10-05T12:15:22.785Z,68.7
2022-10-05T12:20:44.880Z,69.1
2022-10-05T12:26:23.379Z,69.4
2022-10-05T12:32:00.518Z,69.6
2022-10-05T12:38:25.756Z,69.8
2022-10-05T12:44:04.667Z,69.8
2022-10-05T12:49:48.976Z,69.8
2022-10-05T12:55:11.060Z,69.6
2022-10-05T13:00:55.025Z,69.4
2022-10-05T13:06:19.321Z,69.3
2022-10-05T13:11:47.288Z,69.2
2022-10-05T13:17:28.242Z,69.1
2022-10-05T13:23:05.279Z,68.9
2022-10-05T13:28:46.102Z,68.7
2022-10-05T13:34:26.140Z,68.4
2022-10-05T13:40:04.231Z,67.9
2022-10-05T13:45:42.534Z,67.5
2022-10-05T13:51:06.989Z,67
2022-10-05T13:56:45.084Z,66.5
2022-10-05T14:02:07.589Z,65.6
2022-10-05T14:07:35.397Z,64.9
2022-10-05T14:13:13.240Z,64.3
2022-10-05T14:18:39.316Z,63.6
2022-10-05T14:24:04.281Z,62.9
2022-10-05T14:29:48.255Z,62
2022-10-05T14:35:18.202Z,61.3
2022-10-05T14:40:57.423Z,60.4
2022-10-05T14:46:09.229Z,59.6
2022-10-05T14:51:50.040Z,56.9
2022-10-05T14:57:28.331Z,53.4
2022-10-05T15:03:06.287Z,50.9
